aviador You're here:

KRKP Decoded Metar

ROCKPORT in TX, USA
Report Time2018-05-28 06:53:00
UTC Time2018-05-28 07:46:26
Flight Rules vfr VFR
Wind170° at 04 kt
W.Decomp.*RWY 18: 3.8 kt HW 1.1 kt LCW
RWY 14: 3.7 kt HW 1.6 kt RCW
W.Rank170° ranks 5
Current wind is below 170° avg. (7.8)
Visibility9999 m
Phenomena:N/A
Clouds:N/A
Expected CloudBase > 1,200 ft AGL from Temp-Dew spread
CeilingNone
Temp26°C (ISA +11)
Dew Point23°C (84% RH)
QNH1009 hPa
Density Alt1,798 ft
Elevation20 ft
Report Wrong Elevation
Raw Report
KRKP 280653Z AUTO 17004KT 10SM CLR 26/23 A2980 RMK AO2 SLP092
T02610233=

Extra information for KRKP:More info

Metar Taf Metar & Taf Last 4 Metars F.Rules Stats Wind Profile Meteogram Temp Stats Airport Information Weather charts Add Link Nearby VenuesMetar ALERT Operation Metar Decoded Social comments

AIRNAV info for KRKP